Alex, Oklahoma
Current Conditions -  °F | °C
As of 9:10 AM on Wednesday 22 Oct 2014 (Local Time) from KOUN Reporting Station
Clear Clear  
Wind Chill: 63°   Ceiling: Unl
Heat Index: 63°   Visibility: 7mi
Dew Point: 63°   Wind: 5mph
Humidity: 100%   Direction: 170°S
Pressure: 30.17"   Gusts: NA
Location:  34.91°N, 97.78°W
Report Text: KOUN 221410Z AUTO 17004KT 7SM CLR 17/17 A3017 RMK AO2
Loading
Personal Weather Stations






























Interactive Weather Map
Tropical Storm Tracking
New forecast layout! Learn more

10-Day Weather Forecast

Advertisements
Track Severe Weather on mobile